PATQ

Atqasuk Edward Burnell Sr Memorial Airport

Airport
ICAO code
PATQ
IATA Code
ATK
Summary
ICAO Region
NAM
ICAO Territory
Location

Atqasuk, Alaska

Serving
Atqasuk
Elevation
96 ft
Coordinates
70° 28' 2" N , 157° 26' 10" W
Metar
PATQ 300556Z AUTO 19006KT 10SM CLR 00/M01 A2994 RMK AO2 SLPNO 6//// T00001006 10044 20000 58000 FZRANO TSNO

Runways

Designator Length Width Surface Rops
6/24 1332 27 GVL Yes/Yes

Airport map

Aerial View

SKYbrary Partners:

Safety knowledge contributed by: